This is the latest recevied weather packets stored in our database for station/object KF0PEC-15. If no packets are shown the sender has not sent any weather packets the latest 10 day(s).
| Time | Temp. | Humidity | Pressure | Rain* | Wind** | Luminosity | Snow |
|---|---|---|---|---|---|---|---|
| 1777736685 | 14.44° C | 27% | 1020.3 hPa | 0 mm | - | 581 W/m² | - |
| 1777736140 | 14.44° C | 28% | 1020.4 hPa | 0 mm | - | 566 W/m² | - |
| 1777735645 | 14.44° C | 29% | 1020.7 hPa | 0 mm | - | 536 W/m² | - |
| 1777735148 | 13.89° C | 30% | 1021 hPa | 0 mm | - | 506 W/m² | - |
| 1777734577 | 13.33° C | 32% | 1021.6 hPa | 0 mm | - | 476 W/m² | - |
| 1777734035 | 12.78° C | 33% | 1022.1 hPa | 0 mm | - | 456 W/m² | - |
| 1777733455 | 12.22° C | 32% | 1022.5 hPa | 0 mm | - | 411 W/m² | - |
| 1777732920 | 12.22° C | 35% | 1022.6 hPa | 0 mm | - | 365 W/m² | - |
| 1777732415 | 10.56° C | 39% | 1023.9 hPa | 0 mm | - | 327 W/m² | - |
| 1777731885 | 9.44° C | 40% | 1024.7 hPa | 0 mm | - | 295 W/m² | - |
| 1777731335 | 8.89° C | 41% | 1025 hPa | 0 mm | - | 278 W/m² | - |
| 1777730275 | 6.11° C | 49% | 1027.7 hPa | 0 mm | - | 681 W/m² | - |
| 1777729765 | 5.56° C | 51% | 1028.2 hPa | 0 mm | - | 441 W/m² | - |
| 1777729170 | 4.44° C | 57% | 1029 hPa | 0 mm | - | 395 W/m² | - |
| 1777728630 | 3.89° C | 60% | 1029.4 hPa | 0 mm | - | 377 W/m² | - |
| 1777728095 | 3.33° C | 63% | 1029.9 hPa | 0 mm | - | 341 W/m² | - |
| 1777727505 | 1.67° C | 72% | 1030.9 hPa | 0 mm | - | 311 W/m² | - |
| 1777726975 | 1.11° C | 73% | 1031.6 hPa | 0 mm | - | 285 W/m² | - |
| 1777726405 | 0.56° C | 76% | 1032.2 hPa | 0 mm | - | 283 W/m² | - |
| 1777725845 | 0° C | 77% | 1032.4 hPa | 0 mm | - | 210 W/m² | - |
| 1777725297 | -0.56° C | 77% | 1032.8 hPa | 0 mm | - | 157 W/m² | - |
| 1777724710 | -0.56° C | 78% | 1033 hPa | 0 mm | - | 103 W/m² | - |
| 1777724230 | -1.11° C | 78% | 1033 hPa | 0 mm | - | 762 W/m² | - |
| 1777723705 | -0.56° C | 77% | 1032.7 hPa | 0 mm | - | 345 W/m² | - |
| 1777723135 | -0.56° C | 76% | 1032.6 hPa | 0 mm | - | 100 W/m² | - |
* Rain latest hour (hover to see other rain measurements)
** Current wind speed in m/s (hover to see current wind gust speed)